createdAt,value
2018-05-26T00:02:09.062Z,2.63
2018-05-26T00:04:37.431Z,2.63
2018-05-26T00:07:05.849Z,2.70
2018-05-26T00:09:33.508Z,2.80
2018-05-26T00:12:01.126Z,2.50
2018-05-26T00:14:28.743Z,2.87
2018-05-26T00:16:56.344Z,2.70
2018-05-26T00:19:23.978Z,3.30
2018-05-26T00:21:51.586Z,2.10
2018-05-26T00:24:19.945Z,2.80
2018-05-26T00:26:47.554Z,2.40
2018-05-26T00:29:15.168Z,2.60
2018-05-26T00:31:43.582Z,2.63
2018-05-26T00:34:11.180Z,3.13
2018-05-26T00:36:38.802Z,2.90
2018-05-26T00:39:06.436Z,2.80
2018-05-26T00:41:34.800Z,2.93
2018-05-26T00:44:02.422Z,2.70
2018-05-26T00:46:30.028Z,2.73
2018-05-26T00:48:57.667Z,3.10
2018-05-26T00:51:25.272Z,3.20
2018-05-26T00:53:52.882Z,3.30
2018-05-26T00:56:20.482Z,3.40
2018-05-26T00:58:48.854Z,2.97
2018-05-26T01:01:17.247Z,3.20
2018-05-26T01:03:44.847Z,2.83
2018-05-26T01:06:12.465Z,3.60
2018-05-26T01:08:40.070Z,3.50
2018-05-26T01:11:07.682Z,3.10
2018-05-26T01:13:35.291Z,2.80
2018-05-26T01:16:02.910Z,2.80
2018-05-26T01:18:30.529Z,2.70
2018-05-26T01:20:58.145Z,2.60
2018-05-26T01:23:25.751Z,3.10
2018-05-26T01:25:53.369Z,2.90
2018-05-26T01:28:20.981Z,3.27
2018-05-26T01:30:49.358Z,2.70
2018-05-26T01:33:17.751Z,2.60
2018-05-26T01:35:45.358Z,2.63
2018-05-26T01:38:12.978Z,2.60
2018-05-26T01:40:40.574Z,2.73
2018-05-26T01:43:08.182Z,2.83
2018-05-26T01:45:36.561Z,2.67
2018-05-26T01:48:04.208Z,2.70
2018-05-26T01:50:32.590Z,2.37
2018-05-26T01:53:00.961Z,2.57
2018-05-26T01:55:29.334Z,2.97
2018-05-26T01:57:57.711Z,2.37
2018-05-26T02:00:25.323Z,2.33
2018-05-26T02:02:52.918Z,2.67
2018-05-26T02:05:20.550Z,2.20
2018-05-26T02:07:48.155Z,2.53
2018-05-26T02:10:16.521Z,2.57
2018-05-26T02:12:44.130Z,2.20
2018-05-26T02:15:11.744Z,2.00
2018-05-26T02:17:39.378Z,2.73
2018-05-26T02:20:06.986Z,1.50
2018-05-26T02:22:35.355Z,2.20
2018-05-26T02:25:03.737Z,2.00
2018-05-26T02:27:32.186Z,1.90
2018-05-26T02:29:59.795Z,2.20
2018-05-26T02:32:27.396Z,2.00
2018-05-26T02:34:55.010Z,2.53
2018-05-26T02:37:22.623Z,2.17
2018-05-26T02:39:50.256Z,2.43
2018-05-26T02:42:17.859Z,2.30
2018-05-26T02:44:45.523Z,2.30
2018-05-26T02:47:13.143Z,2.07
2018-05-26T02:49:40.746Z,2.13
2018-05-26T02:52:09.176Z,2.00
2018-05-26T02:54:36.770Z,2.53
2018-05-26T02:57:04.389Z,2.47
2018-05-26T02:59:32.000Z,2.17
2018-05-26T03:02:00.379Z,1.87
2018-05-26T03:04:34.511Z,2.53
2018-05-26T03:07:08.436Z,2.20
2018-05-26T03:09:41.766Z,2.30
2018-05-26T03:12:14.959Z,2.17
2018-05-26T03:14:47.069Z,2.40
2018-05-26T03:17:16.487Z,2.40
2018-05-26T03:19:44.087Z,2.50
2018-05-26T03:22:11.698Z,2.60
2018-05-26T03:24:39.306Z,2.07
2018-05-26T03:27:06.952Z,2.43
2018-05-26T03:29:34.546Z,2.77
2018-05-26T03:32:02.170Z,2.60
2018-05-26T03:34:29.783Z,2.90
2018-05-26T03:36:58.162Z,2.10
2018-05-26T03:39:26.537Z,2.00
2018-05-26T03:41:54.899Z,2.60
2018-05-26T03:44:23.275Z,2.33
2018-05-26T03:46:50.883Z,2.40
2018-05-26T03:49:18.482Z,2.43
2018-05-26T03:51:46.102Z,2.70
2018-05-26T03:54:13.705Z,2.90
2018-05-26T03:56:53.118Z,2.60
2018-05-26T03:59:23.576Z,2.87
2018-05-26T04:01:51.182Z,2.67
2018-05-26T04:04:18.807Z,3.33
2018-05-26T04:06:47.173Z,2.97
2018-05-26T04:09:14.789Z,3.57
2018-05-26T04:11:42.400Z,2.80
2018-05-26T04:14:10.771Z,3.73
2018-05-26T04:16:39.150Z,2.90
2018-05-26T04:19:07.527Z,4.00
2018-05-26T04:21:35.906Z,3.80
2018-05-26T04:24:04.274Z,3.67
2018-05-26T04:26:31.891Z,3.30
2018-05-26T04:28:59.493Z,3.30
2018-05-26T04:31:28.707Z,3.23
2018-05-26T04:33:57.082Z,3.37
2018-05-26T04:36:25.471Z,3.50
2018-05-26T04:38:53.858Z,3.33
2018-05-26T04:41:21.490Z,2.87
2018-05-26T04:43:49.103Z,2.80
2018-05-26T04:46:16.698Z,3.10
2018-05-26T04:48:44.336Z,3.93
2018-05-26T04:51:11.939Z,3.97
2018-05-26T04:53:40.301Z,3.97
2018-05-26T04:56:07.910Z,4.17
2018-05-26T04:58:36.351Z,3.83
2018-05-26T05:01:04.723Z,3.83
2018-05-26T05:03:33.102Z,3.70
2018-05-26T05:06:01.555Z,3.30
2018-05-26T05:08:29.158Z,3.37
2018-05-26T05:10:57.526Z,3.70
2018-05-26T05:13:25.905Z,3.90
2018-05-26T05:15:53.542Z,2.77
2018-05-26T05:18:21.150Z,3.43
2018-05-26T05:20:48.758Z,2.97
2018-05-26T05:23:16.385Z,3.10
2018-05-26T05:25:43.990Z,3.77
2018-05-26T05:28:11.604Z,3.40
2018-05-26T05:30:39.210Z,3.10
2018-05-26T05:33:06.819Z,3.97
2018-05-26T05:35:34.426Z,3.87
2018-05-26T05:38:02.047Z,3.77
2018-05-26T05:40:29.650Z,3.60
2018-05-26T05:42:57.263Z,3.57
2018-05-26T05:45:24.866Z,3.57
2018-05-26T05:47:52.498Z,3.87
2018-05-26T05:50:20.098Z,4.10
2018-05-26T05:52:48.471Z,4.50
2018-05-26T05:55:16.855Z,4.57
2018-05-26T05:57:45.218Z,4.30
2018-05-26T06:00:12.835Z,3.73
2018-05-26T06:02:40.446Z,4.03
2018-05-26T06:05:08.825Z,3.13
2018-05-26T06:07:37.199Z,3.17
2018-05-26T06:10:05.595Z,3.33
2018-05-26T06:12:33.970Z,3.77
2018-05-26T06:15:02.350Z,3.10
2018-05-26T06:17:29.983Z,3.60
2018-05-26T06:19:57.586Z,3.20
2018-05-26T06:22:25.241Z,3.20
2018-05-26T06:24:53.603Z,3.33
2018-05-26T06:27:21.982Z,3.33
2018-05-26T06:29:50.349Z,2.90
2018-05-26T06:32:18.779Z,3.47
2018-05-26T06:34:46.443Z,3.87
2018-05-26T06:37:14.063Z,3.20
2018-05-26T06:39:42.439Z,3.33
2018-05-26T06:42:10.830Z,3.13
2018-05-26T06:44:38.446Z,3.00
2018-05-26T06:47:06.862Z,3.30
2018-05-26T06:49:34.462Z,3.10
2018-05-26T06:52:02.079Z,3.10
2018-05-26T06:54:29.690Z,3.40
2018-05-26T06:56:57.310Z,3.97
2018-05-26T06:59:24.914Z,3.03
2018-05-26T07:01:52.531Z,3.70
2018-05-26T07:04:20.149Z,3.27
2018-05-26T07:06:47.771Z,4.10
2018-05-26T07:09:15.434Z,3.53
2018-05-26T07:11:43.035Z,3.50
2018-05-26T07:14:11.408Z,3.40
2018-05-26T07:16:39.795Z,3.58
2018-05-26T07:19:08.172Z,4.15
2018-05-26T07:21:36.559Z,3.67
2018-05-26T07:24:04.946Z,3.70
2018-05-26T07:26:32.559Z,3.83
2018-05-26T07:29:00.167Z,3.28
2018-05-26T07:31:27.786Z,3.80
2018-05-26T07:33:55.402Z,3.50
2018-05-26T07:36:23.007Z,3.53
2018-05-26T07:38:50.623Z,3.35
2018-05-26T07:41:18.240Z,3.90
2018-05-26T07:43:45.851Z,3.62
2018-05-26T07:46:13.495Z,3.87
2018-05-26T07:48:41.098Z,3.83
2018-05-26T07:51:08.717Z,3.95
2018-05-26T07:53:36.327Z,3.53
2018-05-26T07:56:03.942Z,3.65
2018-05-26T07:58:31.595Z,3.62
2018-05-26T08:00:59.970Z,4.12
2018-05-26T08:03:27.590Z,3.72
2018-05-26T08:05:55.197Z,3.67
2018-05-26T08:08:22.822Z,4.10
2018-05-26T08:10:51.223Z,4.10
2018-05-26T08:13:18.827Z,4.12
2018-05-26T08:15:46.442Z,3.97
2018-05-26T08:18:14.055Z,3.50
2018-05-26T08:20:41.663Z,4.30
2018-05-26T08:23:09.283Z,4.03
2018-05-26T08:25:36.896Z,4.15
2018-05-26T08:28:04.498Z,3.58
2018-05-26T08:30:32.116Z,3.85
2018-05-26T08:32:59.726Z,3.42
2018-05-26T08:35:27.345Z,3.90
2018-05-26T08:37:54.950Z,4.30
2018-05-26T08:40:23.326Z,3.65
2018-05-26T08:42:50.958Z,3.70
2018-05-26T08:45:18.579Z,3.60
2018-05-26T08:47:46.194Z,4.40
2018-05-26T08:50:13.812Z,3.80
2018-05-26T08:52:41.470Z,3.83
2018-05-26T08:55:09.072Z,3.70
2018-05-26T08:57:36.679Z,4.10
2018-05-26T09:00:04.291Z,3.30
2018-05-26T09:02:31.894Z,3.95
2018-05-26T09:04:59.506Z,3.50
2018-05-26T09:07:27.145Z,4.72
2018-05-26T09:09:54.766Z,4.35
2018-05-26T09:12:22.400Z,3.80
2018-05-26T09:14:50.076Z,4.28
2018-05-26T09:17:17.679Z,3.78
2018-05-26T09:19:45.283Z,3.83
2018-05-26T09:22:12.894Z,3.90
2018-05-26T09:24:40.499Z,3.92
2018-05-26T09:27:08.896Z,4.05
2018-05-26T09:29:37.272Z,4.45
2018-05-26T09:32:05.651Z,3.90
2018-05-26T09:34:34.019Z,4.10
2018-05-26T09:37:02.453Z,4.55
2018-05-26T09:39:30.071Z,4.65
2018-05-26T09:41:58.443Z,3.72
2018-05-26T09:44:26.831Z,3.97
2018-05-26T09:46:54.487Z,4.03
2018-05-26T09:49:22.866Z,3.97
2018-05-26T09:51:51.279Z,3.47
2018-05-26T09:54:18.888Z,3.20
2018-05-26T09:56:47.267Z,3.25
2018-05-26T09:59:15.651Z,3.70
2018-05-26T10:01:44.034Z,3.00
2018-05-26T10:04:12.411Z,3.25
2018-05-26T10:06:40.066Z,3.17
2018-05-26T10:09:08.447Z,3.87
2018-05-26T10:11:36.827Z,3.73
2018-05-26T10:14:05.211Z,4.50
2018-05-26T10:16:33.587Z,4.80
2018-05-26T10:19:01.957Z,3.97
2018-05-26T10:21:30.356Z,4.30
2018-05-26T10:23:57.975Z,4.87
2018-05-26T10:26:25.632Z,4.07
2018-05-26T10:28:53.250Z,4.03
2018-05-26T10:31:20.863Z,4.77
2018-05-26T10:33:48.544Z,4.10
2018-05-26T10:36:16.195Z,3.87
2018-05-26T10:38:44.568Z,3.87
2018-05-26T10:41:12.973Z,4.67
2018-05-26T10:43:40.584Z,4.47
2018-05-26T10:46:19.999Z,3.53
2018-05-26T10:48:47.610Z,3.53
2018-05-26T10:51:15.987Z,3.12
2018-05-26T10:53:44.366Z,3.73
2018-05-26T10:56:12.764Z,3.37
2018-05-26T10:58:40.378Z,4.03
2018-05-26T11:01:08.034Z,3.50
2018-05-26T11:03:35.653Z,3.77
2018-05-26T11:06:03.264Z,3.43
2018-05-26T11:08:30.881Z,3.53
2018-05-26T11:10:58.538Z,3.90
2018-05-26T11:13:26.155Z,3.57
2018-05-26T11:15:53.791Z,3.60
2018-05-26T11:18:21.398Z,3.63
2018-05-26T11:20:49.039Z,3.17
2018-05-26T11:23:17.417Z,3.60
2018-05-26T11:25:45.818Z,2.90
2018-05-26T11:28:13.452Z,3.80
2018-05-26T11:30:41.832Z,3.30
2018-05-26T11:33:10.210Z,3.33
2018-05-26T11:35:38.581Z,3.80
2018-05-26T11:38:06.962Z,3.47
2018-05-26T11:40:35.337Z,3.67
2018-05-26T11:43:03.723Z,3.97
2018-05-26T11:45:32.147Z,3.45
2018-05-26T11:48:00.544Z,3.33
2018-05-26T11:50:28.151Z,4.32
2018-05-26T11:52:55.764Z,4.95
2018-05-26T11:55:23.387Z,4.28
2018-05-26T11:57:51.000Z,4.80
2018-05-26T12:00:18.630Z,5.20
2018-05-26T12:02:46.238Z,4.30
2018-05-26T12:05:14.613Z,4.00
2018-05-26T12:07:42.986Z,4.15
2018-05-26T12:10:11.368Z,4.45
2018-05-26T12:12:39.755Z,4.32
2018-05-26T12:15:08.120Z,4.03
2018-05-26T12:17:36.497Z,4.03
2018-05-26T12:20:04.894Z,4.10
2018-05-26T12:22:32.505Z,4.68
2018-05-26T12:25:00.143Z,4.62
2018-05-26T12:27:27.746Z,4.30
2018-05-26T12:29:55.363Z,4.28
2018-05-26T12:32:22.975Z,5.82
2018-05-26T12:34:51.373Z,4.43
2018-05-26T12:37:18.978Z,4.03
2018-05-26T12:39:46.599Z,4.45
2018-05-26T12:42:14.211Z,8.93
2018-05-26T12:44:41.819Z,5.03
2018-05-26T12:47:09.431Z,4.70
2018-05-26T12:49:37.034Z,5.82
2018-05-26T12:52:04.664Z,6.47
2018-05-26T12:54:32.280Z,7.62
2018-05-26T12:56:59.902Z,6.97
2018-05-26T12:59:28.271Z,7.60
2018-05-26T13:01:56.700Z,5.43
2018-05-26T13:04:24.314Z,5.77
2018-05-26T13:06:52.714Z,6.27
2018-05-26T13:09:20.336Z,6.80
2018-05-26T13:11:47.956Z,5.93
2018-05-26T13:14:15.566Z,6.50
2018-05-26T13:16:43.938Z,5.97
2018-05-26T13:19:12.307Z,5.83
2018-05-26T13:21:39.925Z,6.13
2018-05-26T13:24:07.540Z,5.67
2018-05-26T13:26:35.918Z,5.30
2018-05-26T13:29:04.319Z,6.67
2018-05-26T13:31:31.941Z,6.13
2018-05-26T13:33:59.554Z,5.67
2018-05-26T13:36:27.159Z,5.30
2018-05-26T13:38:54.781Z,5.27
2018-05-26T13:41:22.382Z,6.23
2018-05-26T13:43:49.994Z,5.70
2018-05-26T13:46:17.602Z,5.10
2018-05-26T13:48:45.206Z,5.87
2018-05-26T13:51:12.864Z,5.37
2018-05-26T13:53:40.528Z,5.87
2018-05-26T13:56:08.866Z,5.93
2018-05-26T13:58:37.234Z,5.33
2018-05-26T14:01:04.890Z,5.23
2018-05-26T14:03:32.529Z,6.00
2018-05-26T14:06:00.138Z,5.33
2018-05-26T14:08:28.511Z,5.70
2018-05-26T14:10:56.934Z,5.30
2018-05-26T14:13:24.526Z,5.77
2018-05-26T14:15:52.147Z,5.15
2018-05-26T14:18:19.750Z,5.00
2018-05-26T14:20:47.354Z,4.93
2018-05-26T14:23:14.966Z,5.40
2018-05-26T14:25:42.576Z,5.37
2018-05-26T14:28:10.199Z,5.73
2018-05-26T14:30:38.592Z,5.70
2018-05-26T14:33:06.199Z,5.73
2018-05-26T14:35:33.810Z,5.90
2018-05-26T14:38:02.190Z,5.33
2018-05-26T14:40:30.563Z,6.17
2018-05-26T14:42:58.927Z,4.97
2018-05-26T14:45:27.318Z,5.80
2018-05-26T14:47:55.691Z,5.47
2018-05-26T14:50:24.066Z,5.70
2018-05-26T14:52:52.566Z,5.10
2018-05-26T14:55:20.325Z,5.70
2018-05-26T14:57:47.988Z,5.13
2018-05-26T15:00:15.776Z,5.57
2018-05-26T15:02:43.459Z,5.63
2018-05-26T15:05:11.130Z,6.07
2018-05-26T15:07:38.832Z,5.83
2018-05-26T15:10:06.486Z,5.17
2018-05-26T15:12:34.854Z,5.40
2018-05-26T15:15:03.238Z,6.00
2018-05-26T15:20:05.491Z,5.97
2018-05-26T15:22:33.098Z,6.20
2018-05-26T15:25:00.706Z,5.73
2018-05-26T15:27:28.316Z,6.07
2018-05-26T15:29:55.923Z,5.60
2018-05-26T15:32:23.541Z,5.77
2018-05-26T15:34:51.179Z,5.20
2018-05-26T15:37:19.592Z,6.13
2018-05-26T15:39:47.199Z,4.97
2018-05-26T15:42:14.851Z,4.80
2018-05-26T15:44:42.458Z,4.62
2018-05-26T15:47:10.070Z,5.73
2018-05-26T15:49:37.682Z,5.37
2018-05-26T15:52:05.303Z,5.68
2018-05-26T15:54:32.910Z,5.70
2018-05-26T15:57:00.537Z,5.37
2018-05-26T15:59:28.918Z,5.40
2018-05-26T16:01:57.340Z,5.15
2018-05-26T16:04:24.958Z,5.05
2018-05-26T16:06:53.322Z,4.65
2018-05-26T16:09:21.702Z,5.85
2018-05-26T16:11:50.082Z,4.78
2018-05-26T16:14:18.478Z,5.35
2018-05-26T16:16:46.084Z,5.62
2018-05-26T16:19:13.698Z,5.05
2018-05-26T16:21:41.309Z,5.30
2018-05-26T16:24:08.912Z,5.20
2018-05-26T16:26:36.523Z,5.60
2018-05-26T16:29:04.128Z,4.68
2018-05-26T16:31:32.503Z,5.15
2018-05-26T16:34:00.885Z,5.70
2018-05-26T16:36:29.252Z,5.78
2018-05-26T16:38:57.638Z,4.63
2018-05-26T16:41:25.251Z,4.93
2018-05-26T16:43:52.883Z,4.97
2018-05-26T16:46:20.492Z,4.70
2018-05-26T16:48:48.116Z,5.60
2018-05-26T16:51:15.735Z,5.70
2018-05-26T16:53:44.103Z,5.53
2018-05-26T16:56:12.474Z,5.37
2018-05-26T16:58:40.122Z,6.03
2018-05-26T17:01:07.730Z,4.97
2018-05-26T17:03:35.338Z,5.50
2018-05-26T17:06:02.959Z,5.67
2018-05-26T17:08:30.568Z,5.50
2018-05-26T17:10:58.193Z,6.20
2018-05-26T17:13:26.575Z,5.90
2018-05-26T17:15:54.178Z,4.90
2018-05-26T17:18:22.574Z,5.10
2018-05-26T17:20:50.186Z,5.63
2018-05-26T17:23:18.555Z,5.90
2018-05-26T17:25:46.174Z,6.03
2018-05-26T17:28:13.783Z,4.97
2018-05-26T17:30:41.399Z,5.70
2018-05-26T17:33:09.053Z,5.53
2018-05-26T17:35:36.664Z,5.53
2018-05-26T17:38:04.279Z,5.00
2018-05-26T17:40:31.886Z,5.10
2018-05-26T17:42:59.495Z,5.60
2018-05-26T17:45:27.104Z,5.43
2018-05-26T17:47:54.720Z,5.17
2018-05-26T17:50:22.326Z,5.53
2018-05-26T17:52:49.933Z,5.87
2018-05-26T17:55:17.558Z,5.93
2018-05-26T17:57:45.943Z,6.23
2018-05-26T18:00:14.343Z,5.30
2018-05-26T18:02:41.952Z,5.70
2018-05-26T18:05:09.595Z,5.47
2018-05-26T18:07:37.210Z,5.27
2018-05-26T18:10:05.594Z,6.10
2018-05-26T18:12:33.967Z,5.10
2018-05-26T18:15:02.371Z,5.60
2018-05-26T18:17:29.990Z,5.97
2018-05-26T18:19:58.362Z,4.93
2018-05-26T18:22:25.958Z,5.07
2018-05-26T18:24:53.578Z,5.40
2018-05-26T18:27:21.185Z,5.97
2018-05-26T18:29:48.809Z,6.10
2018-05-26T18:32:17.197Z,6.77
2018-05-26T18:34:45.575Z,6.47
2018-05-26T18:37:13.964Z,5.93
2018-05-26T18:39:41.579Z,6.23
2018-05-26T18:42:09.199Z,6.10
2018-05-26T18:44:36.810Z,5.70
2018-05-26T18:47:04.450Z,5.80
2018-05-26T18:49:32.059Z,6.30
2018-05-26T18:52:00.426Z,5.93
2018-05-26T18:54:28.802Z,5.63
2018-05-26T18:56:57.170Z,5.83
2018-05-26T18:59:24.786Z,5.60
2018-05-26T19:01:52.409Z,6.63
2018-05-26T19:04:20.791Z,6.83
2018-05-26T19:06:48.390Z,6.40
2018-05-26T19:09:16.003Z,6.17
2018-05-26T19:11:44.399Z,6.10
2018-05-26T19:14:12.004Z,6.57
2018-05-26T19:16:39.636Z,7.47
2018-05-26T19:19:07.238Z,6.77
2018-05-26T19:21:34.855Z,6.13
2018-05-26T19:24:02.466Z,6.33
2018-05-26T19:26:30.899Z,6.37
2018-05-26T19:28:58.499Z,6.80
2018-05-26T19:31:26.103Z,7.20
2018-05-26T19:33:53.767Z,6.53
2018-05-26T19:36:21.366Z,6.63
2018-05-26T19:38:48.993Z,6.33
2018-05-26T19:41:16.603Z,6.63
2018-05-26T19:43:44.970Z,6.50
2018-05-26T19:46:12.597Z,7.63
2018-05-26T19:48:40.207Z,7.03
2018-05-26T19:51:08.583Z,7.67
2018-05-26T19:53:36.955Z,7.13
2018-05-26T19:56:05.382Z,8.10
2018-05-26T19:58:32.983Z,7.47
2018-05-26T20:01:00.601Z,7.47
2018-05-26T20:03:28.214Z,7.93
2018-05-26T20:05:56.625Z,8.23
2018-05-26T20:08:24.250Z,8.23
2018-05-26T20:10:52.638Z,8.13
2018-05-26T20:13:21.018Z,8.27
2018-05-26T20:15:49.411Z,7.43
2018-05-26T20:18:17.027Z,7.77
2018-05-26T20:20:44.652Z,7.40
2018-05-26T20:23:12.298Z,7.23
2018-05-26T20:25:39.975Z,8.07
2018-05-26T20:28:07.574Z,7.63
2018-05-26T20:30:35.198Z,7.07
2018-05-26T20:33:02.818Z,7.20
2018-05-26T20:35:31.194Z,7.73
2018-05-26T20:37:59.578Z,7.03
2018-05-26T20:40:27.958Z,6.80
2018-05-26T20:42:56.330Z,7.60
2018-05-26T20:45:24.710Z,8.03
2018-05-26T20:47:53.124Z,7.93
2018-05-26T20:50:20.734Z,7.87
2018-05-26T20:52:49.099Z,7.50
2018-05-26T20:55:16.706Z,7.00
2018-05-26T20:57:44.323Z,7.60
2018-05-26T21:00:11.935Z,7.17
2018-05-26T21:02:39.550Z,6.67
2018-05-26T21:05:07.914Z,6.73
2018-05-26T21:07:35.526Z,7.43
2018-05-26T21:10:03.165Z,7.23
2018-05-26T21:12:30.792Z,7.00
2018-05-26T21:14:58.394Z,7.73
2018-05-26T21:17:26.049Z,7.17
2018-05-26T21:19:53.658Z,6.50
2018-05-26T21:22:21.263Z,7.87
2018-05-26T21:24:48.892Z,7.80
2018-05-26T21:27:16.507Z,7.03
2018-05-26T21:29:44.126Z,7.70
2018-05-26T21:32:12.510Z,7.40
2018-05-26T21:34:40.885Z,6.67
2018-05-26T21:37:09.262Z,7.13
2018-05-26T21:39:37.634Z,6.77
2018-05-26T21:42:05.998Z,7.33
2018-05-26T21:44:33.618Z,7.10
2018-05-26T21:47:01.230Z,7.83
2018-05-26T21:49:29.594Z,7.43
2018-05-26T21:51:57.204Z,7.23
2018-05-26T21:54:24.814Z,6.93
2018-05-26T21:56:52.422Z,7.13
2018-05-26T21:59:20.023Z,6.67
2018-05-26T22:01:47.646Z,6.93
2018-05-26T22:04:15.242Z,6.47
2018-05-26T22:06:42.858Z,7.27
2018-05-26T22:09:10.471Z,7.07
2018-05-26T22:11:38.093Z,7.53
2018-05-26T22:14:05.718Z,7.83
2018-05-26T22:16:33.334Z,7.57
2018-05-26T22:19:00.950Z,7.13
2018-05-26T22:21:28.546Z,7.47
2018-05-26T22:23:56.203Z,6.60
2018-05-26T22:26:23.810Z,7.00
2018-05-26T22:28:52.183Z,6.97
2018-05-26T22:31:20.564Z,7.20
2018-05-26T22:33:48.931Z,7.37
2018-05-26T22:36:17.310Z,7.20
2018-05-26T22:38:44.924Z,7.63
2018-05-26T22:41:13.302Z,7.63
2018-05-26T22:43:40.903Z,7.37
2018-05-26T22:46:09.298Z,7.83
2018-05-26T22:48:37.658Z,7.60
2018-05-26T22:51:05.266Z,7.63
2018-05-26T22:53:32.912Z,8.97
2018-05-26T22:56:00.520Z,8.07
2018-05-26T22:58:28.131Z,8.70
2018-05-26T23:00:55.742Z,8.00
2018-05-26T23:03:23.373Z,8.03
2018-05-26T23:05:51.038Z,8.27
2018-05-26T23:08:18.642Z,7.23
2018-05-26T23:10:47.034Z,7.80
2018-05-26T23:13:15.409Z,7.07
2018-05-26T23:15:43.788Z,7.43
2018-05-26T23:18:12.151Z,6.77
2018-05-26T23:20:39.766Z,6.60
2018-05-26T23:23:07.380Z,6.40
2018-05-26T23:25:35.742Z,6.90
2018-05-26T23:28:03.431Z,7.50
2018-05-26T23:30:31.821Z,7.47
2018-05-26T23:32:59.436Z,6.93
2018-05-26T23:35:27.039Z,7.20
2018-05-26T23:37:54.678Z,8.00
2018-05-26T23:40:23.047Z,7.17
2018-05-26T23:42:51.424Z,7.40
2018-05-26T23:45:19.808Z,7.87
2018-05-26T23:47:48.174Z,7.63
2018-05-26T23:50:15.787Z,7.80
2018-05-26T23:52:43.399Z,7.60
2018-05-26T23:55:11.766Z,7.40
2018-05-26T23:57:39.378Z,7.53
